Latest Weather Observations for Jandakot

IDW60901

Issued at 6:21 am WST Friday 23 June 2017 (issued every 10 minutes, with the page automatically refreshed every 10 minutes)

About weather observations | Map of Perth area stations | Latest observations for Perth area | Other Formats
Station Details ID: 009172 Name: JANDAKOT AERO Lat: -32.10 Lon: 115.88 Height: 30.0 m
Data from the previous 72 hours. | See also: Recent months at Jandakot
Date/Time
WST
Temp
°C
App
Temp
°C
Dew
Point
°C
Rel
Hum
%
Delta-T
°C
Wind Press
QNH
hPa
Press
MSL
hPa
Rain since
9am
mm
Dir  Spd
km/h
Gust
km/h
Spd
kts
Gust
kts
23/06:00am 13.4 10.8 12.1 92 0.7 SE 17 22 9 12 1016.3 1016.3 0.6
23/05:30am 13.2 10.3 12.3 94 0.5 SE 19 26 10 14 1015.7 1015.7 0.6
23/05:00am 13.2 10.2 12.5 95 0.4 SE 20 28 11 15 1015.4 1015.4 0.6
23/04:30am 13.2 9.4 12.5 95 0.4 SE 24 32 13 17 1014.9 1014.9 0.6
23/04:00am 13.2 9.7 12.3 94 0.5 SE 22 28 12 15 1014.7 1014.7 0.4
23/03:30am 13.2 10.2 12.1 93 0.6 SE 19 22 10 12 1014.5 1014.5 0.4
23/03:00am 13.0 9.9 12.1 94 0.5 SSE 20 26 11 14 1014.2 1014.2 0.4
23/02:30am 13.1 9.5 11.8 92 0.7 SSE 22 28 12 15 1013.8 1013.8 0.4
23/02:00am 13.4 9.6 11.3 87 1.1 SSE 22 30 12 16 1013.4 1013.4 0.4
23/01:30am 13.4 9.3 11.5 88 1.0 SSE 24 30 13 16 1013.0 1013.0 0.4
23/01:00am 13.4 9.7 11.5 88 1.0 SSE 22 30 12 16 1012.8 1012.8 0.4
23/12:30am 13.3 8.1 11.6 89 0.9 SSE 30 37 16 20 1012.5 1012.5 0.4
23/12:00am 13.2 8.0 11.5 89 0.9 SSE 30 39 16 21 1012.2 1012.2 0.4
 
Date/Time
WST
Temp
°C
App
Temp
°C
Dew
Point
°C
Rel
Hum
%
Delta-T
°C
Wind Press
QNH
hPa
Press
MSL
hPa
Rain since
9am
mm
Dir  Spd
km/h
Gust
km/h
Spd
kts
Gust
kts
22/11:30pm 12.9 7.4 11.8 93 0.6 S 32 41 17 22 1012.0 1012.0 0.4
22/11:00pm 13.3 8.0 11.2 87 1.1 SSE 30 39 16 21 1011.8 1011.8 0.2
22/10:30pm 13.4 7.7 11.1 86 1.2 S 32 41 17 22 1011.8 1011.8 0.2
22/10:00pm 14.0 7.5 10.2 78 2.0 SSE 35 43 19 23 1011.6 1011.6 0.2
22/09:30pm 13.9 8.0 10.5 80 1.8 S 32 44 17 24 1011.2 1011.2 0.2
22/09:00pm 13.8 7.4 10.8 82 1.6 S 35 46 19 25 1011.1 1011.1 0.2
22/08:30pm 13.9 7.2 10.9 82 1.6 SSW 37 52 20 28 1010.9 1010.9 0.2
22/08:00pm 14.0 7.6 10.8 81 1.7 SSW 35 56 19 30 1011.0 1011.0 0.2
22/07:57pm 13.9 7.6 10.9 82 1.6 SSW 35 56 19 30 1010.9 1010.9 0.2
22/07:30pm 13.8 7.2 11.2 84 1.4 SSW 37 48 20 26 1010.8 1010.8 0.2
22/07:00pm 13.8 7.9 11.0 83 1.5 SSW 33 48 18 26 1010.4 1010.4 0.2
22/06:30pm 13.6 7.4 11.3 86 1.2 SW 35 48 19 26 1010.5 1010.5 0.2
22/06:00pm 13.8 8.3 11.8 88 1.1 SW 32 43 17 23 1010.4 1010.4 0.0
22/05:30pm 14.2 8.6 11.6 84 1.4 SW 32 44 17 24 1010.2 1010.2 0.0
22/05:00pm 14.6 8.8 11.6 82 1.6 SW 33 46 18 25 1010.0 1010.0 0.0
22/04:30pm 15.4 10.2 11.5 77 2.1 SW 30 41 16 22 1009.9 1009.9 0.0
22/04:00pm 15.8 10.9 11.3 74 2.4 SW 28 37 15 20 1009.5 1009.5 0.0
22/03:30pm 15.9 11.8 11.3 74 2.5 SW 24 37 13 20 1009.0 1009.0 0.0
22/03:00pm 15.6 9.9 11.3 75 2.3 SW 32 44 17 24 1008.5 1008.5 0.0
22/02:30pm 15.1 10.4 12.0 82 1.7 WSW 28 39 15 21 1008.3 1008.3 0.0
22/02:00pm 15.3 9.6 11.0 75 2.3 SW 32 43 17 23 1007.9 1007.9 0.0
22/01:30pm 15.3 9.6 11.2 76 2.2 SW 32 44 17 24 1007.6 1007.6 0.0
22/01:00pm 15.6 9.3 11.1 74 2.4 WSW 35 43 19 23 1007.1 1007.1 0.0
22/12:30pm 16.0 10.4 11.4 74 2.5 WSW 32 44 17 24 1006.9 1006.9 0.0
22/12:00pm 15.7 10.4 11.4 75 2.3 WSW 30 44 16 24 1006.6 1006.6 0.0
22/11:30am 16.0 10.4 12.0 77 2.2 WSW 33 48 18 26 1006.5 1006.5 0.0
22/11:13am 16.0 10.0 12.2 78 2.1 WSW 35 46 19 25 1006.3 1006.3 0.0
22/11:00am 15.9 11.0 12.6 81 1.8 WSW 30 39 16 21 1006.2 1006.2 0.0
22/10:30am 15.5 10.7 12.8 84 1.5 W 30 43 16 23 1005.9 1005.9 0.0
22/10:00am 15.5 10.2 13.0 85 1.4 W 33 43 18 23 1005.3 1005.3 0.0
22/09:30am 15.9 11.0 13.6 86 1.3 W 32 44 17 24 1004.7 1004.7 0.0
22/09:00am 16.4 10.2 13.8 84 1.5 W 39 54 21 29 1004.2 1004.2 40.8
22/08:45am 16.5 10.7 14.0 85 1.4 W 37 56 20 30 1003.7 1003.6 40.8
22/08:30am 16.8 11.2 14.5 86 1.3 WNW 37 52 20 28 1003.5 1003.4 40.8
22/08:17am 17.2 12.6 14.6 85 1.5 WNW 32 54 17 29 1003.2 1003.1 40.8
22/08:00am 17.5 12.4 13.6 78 2.2 WNW 33 46 18 25 1003.1 1003.0 40.8
22/07:38am 17.1 11.9 14.5 85 1.5 NW 35 54 19 29 1002.7 1002.6 40.8
22/07:30am 16.9 10.8 14.1 83 1.6 WNW 39 56 21 30 1002.8 1002.7 40.8
22/07:25am 16.9 12.3 14.5 86 1.4 NW 32 56 17 30 1002.7 1002.6 40.8
22/07:00am 16.7 11.2 14.6 87 1.2 NW 37 50 20 27 1003.0 1002.9 40.8
22/06:51am 16.7 12.2 15.0 90 1.0 NW 32 50 17 27 1003.1 1003.0 40.8
22/06:30am 14.9 11.7 14.2 96 0.4 N 24 32 13 17 1003.3 1003.2 40.8
22/06:09am 14.4 10.3 13.7 96 0.4 NNE 28 39 15 21 1003.4 1003.3 39.2
22/06:00am 14.5 9.9 13.6 94 0.5 NNE 30 43 16 23 1003.8 1003.8 39.2
22/05:47am 14.1 8.9 13.4 96 0.4 N 33 52 18 28 1004.1 1004.1 39.2
22/05:30am 13.8 8.6 13.3 97 0.3 N 33 56 18 30 1004.5 1004.5 39.2
22/05:00am 13.6 8.9 13.1 97 0.3 NNE 30 46 16 25 1005.0 1005.0 37.4
22/04:35am 13.6 8.5 13.1 97 0.3 N 32 56 17 30 1006.1 1006.1 33.4
22/04:30am 13.4 8.0 12.9 97 0.3 N 33 46 18 25 1006.2 1006.2 33.0
22/04:00am 13.3 8.1 12.8 97 0.3 N 32 43 17 23 1006.6 1006.6 28.8
22/03:53am 13.3 7.9 12.8 97 0.3 NNE 33 43 18 23 1006.7 1006.7 28.0
22/03:50am 13.3 7.5 12.8 97 0.3 NNE 35 44 19 24 1006.6 1006.6 27.6
22/03:36am 13.3 7.1 12.8 97 0.3 NNE 37 48 20 26 1006.8 1006.8 25.0
22/03:33am 13.4 7.6 12.7 95 0.4 NNE 35 48 19 26 1007.0 1007.0 23.6
22/03:30am 13.4 8.0 12.7 95 0.4 NNE 33 48 18 26 1006.9 1006.9 23.4
22/03:23am 13.3 8.1 12.8 97 0.3 NNE 32 39 17 21 1007.2 1007.2 23.2
22/03:14am 13.3 8.1 12.8 97 0.3 N 32 39 17 21 1007.5 1007.5 23.2
22/03:00am 13.2 7.9 12.5 95 0.4 NNE 32 46 17 25 1007.6 1007.6 23.2
22/02:47am 13.1 7.2 12.5 96 0.3 NNE 35 48 19 26 1007.8 1007.8 22.8
22/02:30am 13.2 7.3 12.5 95 0.4 NNE 35 46 19 25 1008.0 1008.0 22.6
22/02:22am 13.3 7.8 12.6 95 0.4 NNE 33 46 18 25 1008.2 1008.2 22.2
22/02:00am 13.2 8.7 12.6 96 0.3 NNE 28 35 15 19 1008.8 1008.8 22.2
22/01:59am 13.2 8.7 12.6 96 0.3 NNE 28 35 15 19 1008.9 1008.9 22.2
22/01:30am 13.2 7.9 12.6 96 0.3 NNE 32 39 17 21 1009.2 1009.2 21.6
22/01:00am 13.1 8.6 12.5 96 0.3 NNE 28 35 15 19 1009.8 1009.8 20.6
22/12:47am 13.4 8.9 12.7 95 0.4 NNE 28 33 15 18 1010.1 1010.1 20.6
22/12:35am 13.6 9.6 12.9 95 0.4 N 26 33 14 18 1010.5 1010.5 20.2
22/12:31am 13.7 9.7 13.0 96 0.4 N 26 35 14 19 1010.7 1010.7 20.2
22/12:30am 13.7 9.7 13.0 96 0.4 N 26 35 14 19 1010.8 1010.8 20.2
22/12:00am 13.2 10.2 12.6 96 0.3 NNE 20 28 11 15 1011.1 1011.1 19.0
 
Date/Time
WST
Temp
°C
App
Temp
°C
Dew
Point
°C
Rel
Hum
%
Delta-T
°C
Wind Press
QNH
hPa
Press
MSL
hPa
Rain since
9am
mm
Dir  Spd
km/h
Gust
km/h
Spd
kts
Gust
kts
21/11:30pm 13.0 8.8 12.4 96 0.3 NNE 26 32 14 17 1011.3 1011.3 13.4
21/11:00pm 13.1 9.7 12.5 96 0.3 NNE 22 30 12 16 1011.9 1011.9 12.6
21/10:50pm 13.1 10.1 12.7 97 0.2 NNE 20 26 11 14 1012.0 1012.0 12.2
21/10:30pm 13.2 10.2 12.6 96 0.3 NNE 20 28 11 15 1012.1 1012.1 8.2
21/10:00pm 13.7 11.4 13.0 96 0.4 N 17 24 9 13 1012.4 1012.4 7.8
21/09:58pm 13.8 11.1 12.9 94 0.5 N 19 24 10 13 1012.4 1012.4 7.6
21/09:37pm 13.4 10.5 12.3 93 0.6 NNE 19 24 10 13 1012.5 1012.5 6.2
21/09:30pm 13.5 11.0 12.4 93 0.6 N 17 22 9 12 1012.8 1012.8 5.4
21/09:02pm 14.0 9.4 12.2 89 1.0 NNW 28 46 15 25 1012.9 1012.9 4.2
21/09:00pm 14.1 9.1 12.1 88 1.1 NNW 30 46 16 25 1013.0 1013.0 4.0
21/08:53pm 13.8 9.0 11.7 87 1.1 NW 28 46 15 25 1012.6 1012.6 3.6
21/08:30pm 14.2 11.8 12.6 90 0.9 N 17 20 9 11 1012.9 1012.9 0.8
21/08:00pm 13.9 10.8 12.2 89 0.9 NNE 20 26 11 14 1012.7 1012.7 0.8
21/07:30pm 15.4 12.2 11.9 79 1.9 N 20 32 11 17 1012.8 1012.8 0.8
21/07:00pm 14.8 10.4 11.8 82 1.6 N 26 41 14 22 1012.9 1012.9 0.8
21/06:30pm 15.2 10.1 10.7 74 2.4 NNW 28 56 15 30 1012.8 1012.8 0.6
21/06:29pm 15.3 10.1 10.4 72 2.6 NNW 28 56 15 30 1012.8 1012.8 0.6
21/06:00pm 15.3 12.0 11.6 78 2.0 N 20 30 11 16 1012.9 1012.9 0.4
21/05:30pm 15.6 10.9 11.9 78 2.0 NNW 28 37 15 20 1012.8 1012.8 0.4
21/05:00pm 16.7 12.7 10.5 67 3.3 NNW 22 30 12 16 1013.0 1013.0 0.4
21/04:30pm 17.3 13.8 10.8 65 3.5 NNW 20 30 11 16 1013.2 1013.2 0.4
21/04:00pm 17.1 12.2 9.9 62 3.8 NNW 26 39 14 21 1013.3 1013.3 0.4
21/03:30pm 18.0 11.9 9.9 59 4.3 NW 32 41 17 22 1013.3 1013.3 0.4
21/03:00pm 16.6 12.0 11.2 70 2.9 NW 26 37 14 20 1013.5 1013.5 0.4
21/02:30pm 18.0 11.5 9.0 55 4.7 NNW 33 43 18 23 1013.3 1013.3 0.4
21/02:00pm 19.5 13.3 9.3 51 5.4 NW 32 44 17 24 1013.5 1013.5 0.4
21/01:43pm 18.7 12.7 8.5 51 5.3 NW 30 48 16 26 1013.6 1013.6 0.4
21/01:30pm 19.2 12.6 8.4 49 5.6 NW 33 43 18 23 1013.7 1013.7 0.4
21/01:00pm 19.6 13.4 9.4 51 5.4 NNW 32 43 17 23 1014.0 1014.0 0.4
21/12:30pm 17.8 12.0 10.7 63 3.8 NNW 32 44 17 24 1014.4 1014.4 0.4
21/12:00pm 17.5 12.7 10.2 62 3.9 NNW 26 35 14 19 1015.0 1015.0 0.4
21/11:30am 16.8 13.9 12.3 75 2.5 N 19 28 10 15 1015.7 1015.7 0.4
21/11:00am 16.6 13.4 12.0 74 2.5 N 20 26 11 14 1016.5 1016.5 0.4
21/10:30am 16.3 12.9 12.5 78 2.1 NNE 22 30 12 16 1016.7 1016.7 0.0
21/10:00am 14.7 11.2 12.3 85 1.3 N 22 30 12 16 1017.0 1017.0 0.0
21/09:30am 14.9 11.7 11.9 82 1.6 NNE 20 26 11 14 1016.9 1016.9 0.0
21/09:00am 13.4 10.7 11.7 89 0.9 NNE 17 20 9 11 1017.1 1017.1 0.4
21/08:30am 12.6 8.8 11.3 92 0.7 NNE 22 30 12 16 1017.1 1017.1 0.4
21/08:00am 12.3 9.1 11.4 94 0.5 NNE 19 22 10 12 1016.8 1016.8 0.4
21/07:30am 11.6 8.6 10.8 95 0.4 NNE 17 20 9 11 1016.7 1016.7 0.4
21/07:00am 11.6 9.4 10.8 95 0.4 NNE 13 17 7 9 1016.7 1016.7 0.4
21/06:30am 11.8 8.9 11.0 95 0.4 NNE 17 20 9 11 1016.2 1016.2 0.0
21/06:00am 11.7 8.5 11.1 96 0.3 NNE 19 22 10 12 1016.1 1016.1 0.0
21/05:30am 10.8 8.4 10.2 96 0.3 NNE 13 15 7 8 1015.9 1015.9 0.0
21/05:00am 11.0 8.3 10.2 95 0.4 NNE 15 19 8 10 1015.7 1015.7 0.0
21/04:30am 11.3 9.1 10.7 96 0.3 NNE 13 17 7 9 1015.7 1015.7 0.0
21/04:00am 11.4 8.3 10.4 94 0.5 NNE 17 20 9 11 1015.7 1015.7 0.0
21/03:30am 11.3 8.3 10.5 95 0.4 NNE 17 19 9 10 1016.1 1016.1 0.0
21/03:00am 11.0 8.6 10.2 95 0.4 NNE 13 17 7 9 1016.4 1016.4 0.0
21/02:30am 11.2 8.9 10.4 95 0.4 NNE 13 15 7 8 1016.5 1016.5 0.0
21/02:00am 11.2 8.5 10.4 95 0.4 NE 15 17 8 9 1016.5 1016.5 0.0
21/01:30am 12.3 10.7 11.4 94 0.5 NE 11 15 6 8 1016.6 1016.6 0.0
21/01:00am 12.7 11.4 11.4 92 0.7 N 9 11 5 6 1016.8 1016.8 0.0
21/12:30am 13.2 10.9 11.7 91 0.8 NNE 15 17 8 9 1016.8 1016.8 0.0
21/12:00am 12.8 10.4 11.3 91 0.8 NNE 15 19 8 10 1016.7 1016.7 0.0
 
Date/Time
WST
Temp
°C
App
Temp
°C
Dew
Point
°C
Rel
Hum
%
Delta-T
°C
Wind Press
QNH
hPa
Press
MSL
hPa
Rain since
9am
mm
Dir  Spd
km/h
Gust
km/h
Spd
kts
Gust
kts
20/11:30pm 13.1 10.7 11.4 89 0.9 NNE 15 17 8 9 1017.0 1017.0 0.0
20/11:00pm 13.0 10.9 11.3 89 0.9 NNE 13 17 7 9 1017.1 1017.1 0.0
20/10:30pm 13.0 10.5 11.1 88 1.0 NNE 15 17 8 9 1017.1 1017.1 0.0
20/10:00pm 13.4 11.0 11.5 88 1.0 NNE 15 17 8 9 1017.2 1017.2 0.0
20/09:30pm 13.7 11.0 11.6 87 1.1 NNE 17 19 9 10 1017.3 1017.3 0.0
20/09:00pm 13.9 11.6 11.7 86 1.2 NNE 15 17 8 9 1017.3 1017.3 0.0
20/08:30pm 13.0 10.9 11.3 89 0.9 NNE 13 15 7 8 1017.2 1017.2 0.0
20/08:00pm 12.5 10.2 10.6 88 1.0 NNE 13 15 7 8 1017.3 1017.3 0.0
20/07:30pm 13.6 11.9 11.1 85 1.3 NE 11 11 6 6 1017.2 1017.2 0.0
20/07:00pm 14.6 13.5 12.0 84 1.4 NNE 9 9 5 5 1017.1 1017.1 0.0
20/06:30pm 15.0 13.9 12.0 82 1.6 N 9 11 5 6 1016.9 1016.9 0.0
20/06:00pm 16.9 15.9 12.2 74 2.6 NNW 9 11 5 6 1016.8 1016.8 0.0
20/05:30pm 17.3 16.3 12.2 72 2.8 NNW 9 13 5 7 1016.6 1016.6 0.0
20/05:00pm 18.8 16.2 12.1 65 3.7 NW 17 22 9 12 1016.6 1016.6 0.0
20/04:30pm 19.5 16.7 12.5 64 3.9 NW 19 28 10 15 1016.5 1016.5 0.0
20/04:00pm 20.0 17.2 12.5 62 4.2 NW 19 26 10 14 1016.4 1016.4 0.0
20/03:30pm 20.8 17.6 12.0 57 4.9 NW 20 26 11 14 1016.4 1016.4 0.0
20/03:00pm 20.7 17.1 11.9 57 4.9 NW 22 26 12 14 1016.3 1016.3 0.0
20/02:30pm 21.0 17.0 10.5 51 5.7 NNW 22 28 12 15 1016.3 1016.3 0.0
20/02:00pm 21.4 17.1 7.7 41 7.1 NW 20 28 11 15 1016.4 1016.4 0.0
20/01:30pm 22.0 17.5 7.0 38 7.7 NW 20 28 11 15 1016.5 1016.5 0.0
20/01:00pm 21.9 17.6 6.8 37 7.7 NNW 19 26 10 14 1016.9 1016.9 0.0
20/12:30pm 21.4 17.3 7.7 41 7.1 N 19 24 10 13 1017.3 1017.3 0.0
20/12:00pm 21.0 17.2 7.6 42 6.9 N 17 24 9 13 1017.9 1017.9 0.0
20/11:30am 20.7 16.2 6.9 40 7.0 N 20 28 11 15 1018.6 1018.6 0.0
20/11:00am 20.7 16.4 7.2 41 6.9 NE 19 24 10 13 1018.6 1018.6 0.0
20/10:30am 19.0 16.2 10.0 56 4.8 NNE 15 19 8 10 1018.9 1018.9 0.0
20/10:00am 17.9 14.9 10.6 62 3.9 NE 17 20 9 11 1019.2 1019.2 0.0
20/09:30am 15.9 14.9 12.2 78 2.0 NE 9 17 5 9 1019.4 1019.4 0.0
20/09:00am 13.2 13.6 12.6 96 0.3 ENE 2 7 1 4 1019.4 1019.4 -
20/08:30am 11.3 11.3 11.3 100 0.0 ESE 2 6 1 3 1019.4 1019.4 -
20/08:00am 8.0 6.2 7.8 99 0.1 E 7 9 4 5 1019.5 1019.5 -
20/07:30am 6.0 5.0 5.8 99 0.1 CALM 0 0 0 0 1019.5 1019.5 -
20/07:00am 5.8 4.8 5.8 100 0.0 CALM 0 0 0 0 1019.2 1019.2 -
20/06:30am 6.8 6.1 6.8 100 0.0 CALM 0 0 0 0 1019.1 1019.1 -

Latest Capital City Observations: Canberra | Sydney | Melbourne | Brisbane | Adelaide | Perth | Hobart | Darwin

Other Formats:

Comma delimited format used in spreadsheet applications
http://www.bom.gov.au/fwo/IDW60901/IDW60901.94609.axf

JavaScript Object Notation format (JSON) in row-major order
http://www.bom.gov.au/fwo/IDW60901/IDW60901.94609.json